createdAt,value
2022-08-30T00:01:14.573Z,2.05
2022-08-30T00:03:45.530Z,2.00
2022-08-30T00:06:14.920Z,2.17
2022-08-30T00:08:43.480Z,2.15
2022-08-30T00:11:14.965Z,2.30
2022-08-30T00:13:44.544Z,2.13
2022-08-30T00:16:12.571Z,2.20
2022-08-30T00:18:40.600Z,1.87
2022-08-30T00:21:07.920Z,2.17
2022-08-30T00:23:34.794Z,1.75
2022-08-30T00:26:02.691Z,2.40
2022-08-30T00:28:30.247Z,2.30
2022-08-30T00:30:57.091Z,3.17
2022-08-30T00:33:23.972Z,2.25
2022-08-30T00:35:50.667Z,2.03
2022-08-30T00:38:17.248Z,2.03
2022-08-30T00:40:45.435Z,2.10
2022-08-30T00:43:19.503Z,1.85
2022-08-30T00:45:47.137Z,1.80
2022-08-30T00:48:13.817Z,2.38
2022-08-30T00:50:43.860Z,2.13
2022-08-30T00:53:15.646Z,2.55
2022-08-30T00:55:44.166Z,3.10
2022-08-30T00:58:16.751Z,3.20
2022-08-30T01:00:44.075Z,2.58
2022-08-30T01:03:10.706Z,2.60
2022-08-30T01:05:39.735Z,2.72
2022-08-30T01:08:06.890Z,2.72
2022-08-30T01:10:35.953Z,3.03
2022-08-30T01:13:03.463Z,3.05
2022-08-30T01:15:32.639Z,2.88
2022-08-30T01:18:02.351Z,2.47
2022-08-30T01:20:35.812Z,3.38
2022-08-30T01:23:08.803Z,2.97
2022-08-30T01:25:37.781Z,2.63
2022-08-30T01:28:08.681Z,2.60
2022-08-30T01:30:39.011Z,3.08
2022-08-30T01:33:07.005Z,2.75
2022-08-30T01:35:44.446Z,3.47
2022-08-30T01:38:13.131Z,3.15
2022-08-30T01:40:40.546Z,2.80
2022-08-30T01:43:07.402Z,2.72
2022-08-30T01:45:34.408Z,3.15
2022-08-30T01:48:02.747Z,3.42
2022-08-30T01:50:33.389Z,3.03
2022-08-30T01:53:00.241Z,3.10
2022-08-30T01:55:26.964Z,3.28
2022-08-30T01:57:53.596Z,3.00
2022-08-30T02:00:20.200Z,3.22
2022-08-30T02:02:46.906Z,3.55
2022-08-30T02:05:13.686Z,2.75
2022-08-30T02:07:40.455Z,2.80
2022-08-30T02:10:07.821Z,3.17
2022-08-30T02:12:34.946Z,3.45
2022-08-30T02:15:01.936Z,2.83
2022-08-30T02:17:28.527Z,3.58
2022-08-30T02:19:55.257Z,3.67
2022-08-30T02:22:21.917Z,4.05
2022-08-30T02:24:48.550Z,3.33
2022-08-30T02:27:15.296Z,4.45
2022-08-30T02:29:42.311Z,3.47
2022-08-30T02:32:08.888Z,4.07
2022-08-30T02:34:35.508Z,4.22
2022-08-30T02:37:02.186Z,4.03
2022-08-30T02:39:28.659Z,3.40
2022-08-30T02:41:55.237Z,3.65
2022-08-30T02:44:21.770Z,3.75
2022-08-30T02:46:48.540Z,3.53
2022-08-30T02:49:33.590Z,4.43
2022-08-30T02:52:01.143Z,4.72
2022-08-30T02:54:28.688Z,4.60
2022-08-30T02:56:56.214Z,5.18
2022-08-30T02:59:22.894Z,4.37
2022-08-30T03:01:49.612Z,3.92
2022-08-30T03:04:16.240Z,4.80
2022-08-30T03:06:42.784Z,5.28
2022-08-30T03:09:09.343Z,4.13
2022-08-30T03:11:36.053Z,4.25
2022-08-30T03:14:02.600Z,4.20
2022-08-30T03:16:29.162Z,3.83
2022-08-30T03:18:55.714Z,4.20
2022-08-30T03:21:22.532Z,4.60
2022-08-30T03:23:49.771Z,3.83
2022-08-30T03:36:27.948Z,4.15
2022-08-30T03:38:54.818Z,4.43
2022-08-30T03:41:21.284Z,4.43
2022-08-30T03:43:48.022Z,4.20
2022-08-30T03:46:14.725Z,4.90
2022-08-30T03:48:42.152Z,4.30
2022-08-30T03:51:08.969Z,4.25
2022-08-30T03:53:35.705Z,4.68
2022-08-30T03:56:02.813Z,4.90
2022-08-30T03:58:29.385Z,4.40
2022-08-30T04:00:56.096Z,5.05
2022-08-30T04:03:26.041Z,4.38
2022-08-30T04:05:54.760Z,4.30
2022-08-30T04:08:22.807Z,4.63
2022-08-30T04:10:49.993Z,4.80
2022-08-30T04:13:16.892Z,4.50
2022-08-30T04:15:43.480Z,4.85
2022-08-30T04:18:10.258Z,5.20
2022-08-30T04:20:38.020Z,5.72
2022-08-30T04:23:07.239Z,5.55
2022-08-30T04:25:35.191Z,5.10
2022-08-30T04:28:02.530Z,5.38
2022-08-30T04:30:29.195Z,4.60
2022-08-30T04:32:58.709Z,4.95
2022-08-30T04:35:26.462Z,4.72
2022-08-30T04:37:53.087Z,5.68
2022-08-30T04:40:20.294Z,5.47
2022-08-30T04:42:47.642Z,5.00
2022-08-30T04:45:16.210Z,4.88
2022-08-30T04:47:43.360Z,4.55
2022-08-30T04:50:12.316Z,5.40
2022-08-30T04:52:38.957Z,6.65
2022-08-30T04:55:06.671Z,4.87
2022-08-30T04:57:33.324Z,4.80
2022-08-30T04:59:59.887Z,3.90
2022-08-30T05:02:26.839Z,5.30
2022-08-30T05:05:12.341Z,3.83
2022-08-30T05:07:41.008Z,4.67
2022-08-30T05:10:11.360Z,4.38
2022-08-30T05:12:38.711Z,4.88
2022-08-30T05:15:05.833Z,5.53
2022-08-30T05:17:32.732Z,5.43
2022-08-30T05:20:01.793Z,4.40
2022-08-30T05:22:28.400Z,5.93
2022-08-30T05:24:54.921Z,6.38
2022-08-30T05:27:21.666Z,6.07
2022-08-30T05:29:48.199Z,5.63
2022-08-30T05:32:14.837Z,5.78
2022-08-30T05:34:41.820Z,5.57
2022-08-30T05:37:08.388Z,4.53
2022-08-30T05:39:50.789Z,5.55
2022-08-30T05:42:17.789Z,6.25
2022-08-30T05:44:44.535Z,4.73
2022-08-30T05:47:11.190Z,5.20
2022-08-30T05:49:37.805Z,5.10
2022-08-30T05:52:04.867Z,4.82
2022-08-30T05:54:31.559Z,5.40
2022-08-30T05:56:58.427Z,5.67
2022-08-30T05:59:25.047Z,4.65
2022-08-30T06:01:51.610Z,4.57
2022-08-30T06:04:18.436Z,5.50
2022-08-30T06:06:47.271Z,4.63
2022-08-30T06:09:15.118Z,4.30
2022-08-30T06:11:43.190Z,4.50
2022-08-30T06:14:10.449Z,5.13
2022-08-30T06:16:39.053Z,4.10
2022-08-30T06:19:08.585Z,4.45
2022-08-30T06:21:37.070Z,4.65
2022-08-30T06:24:06.363Z,4.28
2022-08-30T06:26:38.429Z,4.45
2022-08-30T06:29:05.006Z,3.83
2022-08-30T06:31:33.621Z,4.13
2022-08-30T06:34:00.423Z,3.97
2022-08-30T06:36:27.291Z,3.05
2022-08-30T06:38:56.460Z,3.80
2022-08-30T06:41:26.782Z,3.58
2022-08-30T06:43:53.940Z,2.97
2022-08-30T06:46:25.282Z,2.90
2022-08-30T06:48:52.557Z,3.20
2022-08-30T06:51:26.289Z,2.80
2022-08-30T06:53:53.838Z,2.53
2022-08-30T06:56:22.147Z,3.35
2022-08-30T06:58:50.221Z,3.00
2022-08-30T07:01:20.107Z,2.83
2022-08-30T07:03:46.768Z,2.30
2022-08-30T07:06:14.444Z,2.28
2022-08-30T07:08:41.443Z,1.60
2022-08-30T07:11:09.368Z,2.55
2022-08-30T07:13:37.479Z,2.28
2022-08-30T07:16:14.174Z,1.90
2022-08-30T07:18:51.183Z,1.90
2022-08-30T07:21:27.396Z,1.40
2022-08-30T07:23:57.216Z,1.48
2022-08-30T07:26:27.808Z,1.17
2022-08-30T07:28:56.499Z,2.33
2022-08-30T07:31:26.783Z,1.27
2022-08-30T07:33:53.744Z,1.20
2022-08-30T07:36:23.312Z,1.15
2022-08-30T07:38:53.470Z,1.08
2022-08-30T07:41:27.220Z,1.50
2022-08-30T07:43:53.930Z,0.80
2022-08-30T07:46:22.112Z,0.90
2022-08-30T07:48:49.284Z,0.90
2022-08-30T07:51:21.742Z,0.77
2022-08-30T07:53:49.075Z,0.70
2022-08-30T07:56:16.124Z,0.90
2022-08-30T07:58:44.425Z,1.10
2022-08-30T08:01:12.598Z,0.68
2022-08-30T08:03:40.372Z,1.05
2022-08-30T08:06:09.027Z,0.80
2022-08-30T08:08:38.144Z,0.50
2022-08-30T08:11:16.371Z,0.70
2022-08-30T08:13:52.968Z,0.80
2022-08-30T08:16:23.504Z,0.80
2022-08-30T08:18:51.123Z,0.60
2022-08-30T08:21:17.642Z,0.80
2022-08-30T08:23:45.009Z,0.80
2022-08-30T08:26:11.613Z,0.80
2022-08-30T08:28:38.303Z,0.70
2022-08-30T08:31:14.571Z,0.60
2022-08-30T08:33:41.337Z,0.80
2022-08-30T08:36:09.496Z,0.70
2022-08-30T08:38:37.893Z,0.70
2022-08-30T08:41:42.808Z,0.87
2022-08-30T08:44:42.588Z,0.70
2022-08-30T08:47:45.799Z,0.75
2022-08-30T08:50:18.544Z,0.57
2022-08-30T08:53:20.604Z,0.73
2022-08-30T08:55:58.497Z,0.90
2022-08-30T08:58:33.174Z,0.70
2022-08-30T09:01:00.439Z,0.90
2022-08-30T09:03:29.502Z,0.80
2022-08-30T09:05:57.640Z,0.75
2022-08-30T09:08:24.604Z,0.80
2022-08-30T09:10:59.415Z,0.90
2022-08-30T09:13:26.618Z,0.63
2022-08-30T09:15:56.284Z,0.55
2022-08-30T09:18:45.524Z,0.80
2022-08-30T09:21:14.414Z,0.60
2022-08-30T09:23:56.268Z,0.60
2022-08-30T09:26:32.647Z,0.65
2022-08-30T09:29:00.982Z,0.50
2022-08-30T09:31:30.658Z,1.00
2022-08-30T09:34:09.403Z,0.80
2022-08-30T09:36:52.256Z,0.60
2022-08-30T09:39:41.499Z,0.82
2022-08-30T09:42:25.216Z,0.70
2022-08-30T09:44:53.841Z,0.70
2022-08-30T09:47:28.922Z,0.50
2022-08-30T09:50:18.452Z,1.20
2022-08-30T09:53:00.571Z,0.95
2022-08-30T09:55:39.542Z,1.20
2022-08-30T09:58:31.008Z,1.38
2022-08-30T10:01:15.842Z,0.67
2022-08-30T10:03:55.341Z,0.73
2022-08-30T10:06:34.133Z,0.88
2022-08-30T10:09:22.751Z,0.90
2022-08-30T10:12:04.368Z,0.88
2022-08-30T10:14:51.109Z,0.70
2022-08-30T10:17:44.120Z,0.80
2022-08-30T10:20:22.308Z,0.80
2022-08-30T10:23:09.984Z,0.88
2022-08-30T10:25:41.707Z,1.08
2022-08-30T10:28:20.397Z,0.70
2022-08-30T10:30:57.307Z,1.25
2022-08-30T10:33:37.433Z,1.00
2022-08-30T10:36:10.497Z,0.95
2022-08-30T10:38:41.258Z,0.80
2022-08-30T10:41:27.927Z,0.60
2022-08-30T10:44:01.062Z,0.90
2022-08-30T10:47:09.405Z,1.10
2022-08-30T10:49:56.669Z,0.88
2022-08-30T10:52:31.292Z,0.85
2022-08-30T10:55:02.832Z,1.23
2022-08-30T10:57:29.411Z,1.00
2022-08-30T11:00:05.891Z,0.80
2022-08-30T11:03:00.618Z,1.05
2022-08-30T11:06:00.318Z,0.70
2022-08-30T11:08:39.603Z,1.10
2022-08-30T11:11:26.672Z,0.90
2022-08-30T11:13:57.247Z,0.85
2022-08-30T11:16:38.977Z,0.80
2022-08-30T11:19:18.933Z,0.60
2022-08-30T11:21:48.179Z,0.60
2022-08-30T11:24:24.853Z,0.90
2022-08-30T11:27:01.354Z,0.93
2022-08-30T11:29:45.798Z,0.93
2022-08-30T11:32:19.060Z,0.77
2022-08-30T11:34:45.719Z,0.70
2022-08-30T11:37:37.497Z,1.10
2022-08-30T11:40:31.493Z,1.13
2022-08-30T11:42:58.112Z,0.70
2022-08-30T11:45:57.274Z,0.75
2022-08-30T11:48:54.056Z,0.80
2022-08-30T11:51:58.102Z,1.10
2022-08-30T11:55:02.902Z,0.82
2022-08-30T11:57:52.998Z,0.82
2022-08-30T12:00:34.284Z,1.10
2022-08-30T12:03:06.501Z,1.00
2022-08-30T12:05:42.862Z,1.15
2022-08-30T12:08:37.312Z,1.30
2022-08-30T12:11:28.239Z,1.17
2022-08-30T12:13:57.655Z,1.25
2022-08-30T12:16:58.945Z,0.80
2022-08-30T12:19:26.839Z,0.90
2022-08-30T12:22:01.732Z,0.93
2022-08-30T12:24:44.038Z,0.60
2022-08-30T12:27:33.303Z,1.02
2022-08-30T12:30:08.361Z,0.80
2022-08-30T12:32:47.762Z,0.80
2022-08-30T12:35:26.413Z,1.02
2022-08-30T12:38:06.204Z,0.90
2022-08-30T12:40:35.317Z,1.10
2022-08-30T12:43:05.720Z,0.80
2022-08-30T12:45:44.210Z,0.70
2022-08-30T12:48:17.595Z,0.88
2022-08-30T12:50:54.535Z,0.60
2022-08-30T12:53:27.859Z,1.00
2022-08-30T12:55:59.531Z,1.00
2022-08-30T12:58:49.859Z,0.82
2022-08-30T13:01:28.683Z,1.17
2022-08-30T13:04:18.987Z,1.10
2022-08-30T13:06:57.946Z,1.05
2022-08-30T13:09:32.565Z,0.87
2022-08-30T13:12:01.717Z,1.08
2022-08-30T13:14:38.630Z,1.00
2022-08-30T13:17:15.429Z,1.05
2022-08-30T13:19:43.769Z,0.90
2022-08-30T13:22:30.949Z,1.20
2022-08-30T13:24:57.693Z,1.58
2022-08-30T13:27:25.590Z,1.23
2022-08-30T13:29:52.938Z,1.40
2022-08-30T13:32:20.678Z,1.30
2022-08-30T13:34:47.377Z,1.40
2022-08-30T13:40:15.197Z,1.45
2022-08-30T13:42:43.200Z,1.48
2022-08-30T13:48:00.287Z,1.63
2022-08-30T13:50:28.067Z,1.73
2022-08-30T13:52:54.687Z,1.50
2022-08-30T13:55:21.301Z,2.40
2022-08-30T13:57:54.194Z,2.08
2022-08-30T14:00:22.539Z,1.77
2022-08-30T14:02:55.098Z,1.52
2022-08-30T14:11:04.136Z,1.25
2022-08-30T14:13:31.873Z,1.47
2022-08-30T14:18:48.887Z,1.40
2022-08-30T14:21:16.397Z,1.00
2022-08-30T14:23:43.152Z,1.20
2022-08-30T14:26:18.543Z,1.23
2022-08-30T14:28:45.276Z,1.00
2022-08-30T14:31:13.602Z,1.17
2022-08-30T14:33:40.399Z,0.93
2022-08-30T14:36:12.983Z,1.25
2022-08-30T14:38:43.741Z,1.23
2022-08-30T14:41:20.911Z,1.20
2022-08-30T14:43:49.719Z,1.30
2022-08-30T14:46:27.089Z,1.10
2022-08-30T14:48:54.355Z,1.10
2022-08-30T14:51:22.972Z,1.23
2022-08-30T14:53:53.561Z,0.90
2022-08-30T14:56:24.124Z,1.02
2022-08-30T14:58:54.113Z,1.02
2022-08-30T15:01:27.751Z,0.82
2022-08-30T15:03:54.937Z,1.00
2022-08-30T15:06:24.007Z,1.30
2022-08-30T15:08:56.963Z,0.85
2022-08-30T15:11:27.373Z,1.08
2022-08-30T15:13:56.383Z,0.90
2022-08-30T15:16:29.753Z,0.80
2022-08-30T15:18:58.529Z,0.70
2022-08-30T15:21:31.742Z,0.88
2022-08-30T15:24:00.243Z,1.17
2022-08-30T15:26:28.060Z,0.70
2022-08-30T15:28:55.667Z,1.53
2022-08-30T15:31:31.901Z,0.77
2022-08-30T15:33:59.548Z,1.30
2022-08-30T15:36:42.509Z,1.33
2022-08-30T15:39:12.892Z,1.00
2022-08-30T15:41:44.255Z,0.97
2022-08-30T15:44:12.331Z,0.90
2022-08-30T15:46:43.058Z,0.85
2022-08-30T15:49:16.482Z,1.10
2022-08-30T15:51:46.124Z,1.20
2022-08-30T15:54:16.481Z,1.00
2022-08-30T15:56:54.039Z,0.98
2022-08-30T15:59:26.777Z,0.80
2022-08-30T16:01:55.394Z,1.33
2022-08-30T16:04:24.844Z,1.08
2022-08-30T16:06:52.860Z,1.10
2022-08-30T16:09:21.680Z,1.02
2022-08-30T16:11:49.157Z,1.00
2022-08-30T16:14:16.302Z,0.75
2022-08-30T16:16:43.315Z,1.08
2022-08-30T16:19:10.367Z,0.90
2022-08-30T16:21:37.315Z,0.85
2022-08-30T16:24:05.785Z,0.93
2022-08-30T16:26:36.752Z,0.80
2022-08-30T16:29:07.202Z,1.08
2022-08-30T16:31:35.931Z,1.17
2022-08-30T16:34:04.373Z,0.90
2022-08-30T16:36:32.509Z,0.98
2022-08-30T16:38:59.883Z,0.82
2022-08-30T16:41:26.748Z,1.10
2022-08-30T16:43:54.386Z,0.90
2022-08-30T16:46:23.439Z,0.80
2022-08-30T16:48:58.999Z,1.77
2022-08-30T16:51:27.551Z,1.00
2022-08-30T16:53:56.803Z,1.20
2022-08-30T16:56:25.208Z,0.83
2022-08-30T16:59:01.098Z,1.00
2022-08-30T17:01:30.648Z,0.90
2022-08-30T17:03:57.438Z,0.75
2022-08-30T17:06:24.324Z,1.33
2022-08-30T17:08:55.886Z,0.97
2022-08-30T17:11:23.709Z,1.00
2022-08-30T17:13:50.970Z,1.10
2022-08-30T17:16:22.326Z,1.15
2022-08-30T17:18:55.053Z,1.02
2022-08-30T17:21:21.920Z,0.90
2022-08-30T17:23:51.246Z,1.05
2022-08-30T17:26:18.341Z,0.70
2022-08-30T17:28:45.724Z,0.90
2022-08-30T17:31:12.911Z,0.82
2022-08-30T17:33:43.100Z,0.60
2022-08-30T17:36:12.861Z,1.13
2022-08-30T17:38:44.899Z,0.75
2022-08-30T17:41:12.168Z,0.85
2022-08-30T17:43:41.982Z,0.85
2022-08-30T17:46:11.977Z,1.23
2022-08-30T17:48:40.481Z,0.70
2022-08-30T17:51:07.341Z,0.77
2022-08-30T17:53:35.502Z,0.73
2022-08-30T17:56:03.493Z,0.90
2022-08-30T17:58:30.295Z,2.30
2022-08-30T18:01:14.372Z,0.90
2022-08-30T18:03:45.335Z,0.88
2022-08-30T18:06:13.880Z,0.80
2022-08-30T18:08:40.703Z,0.80
2022-08-30T18:11:07.403Z,0.83
2022-08-30T18:13:34.207Z,0.80
2022-08-30T18:16:03.045Z,0.63
2022-08-30T18:18:30.364Z,0.80
2022-08-30T18:20:56.984Z,0.88
2022-08-30T18:23:24.352Z,0.93
2022-08-30T18:25:56.695Z,1.02
2022-08-30T18:28:23.564Z,1.00
2022-08-30T18:30:50.083Z,0.70
2022-08-30T18:33:16.909Z,0.80
2022-08-30T18:35:48.245Z,1.13
2022-08-30T18:38:15.160Z,0.90
2022-08-30T18:40:42.150Z,1.17
2022-08-30T18:43:10.418Z,0.60
2022-08-30T18:45:39.568Z,0.88
2022-08-30T18:48:06.088Z,1.00
2022-08-30T18:50:34.113Z,0.80
2022-08-30T18:53:00.963Z,1.10
2022-08-30T18:55:28.538Z,0.90
2022-08-30T18:57:55.234Z,1.10
2022-08-30T19:00:21.980Z,0.90
2022-08-30T19:02:48.820Z,0.90
2022-08-30T19:05:22.512Z,0.60
2022-08-30T19:07:51.820Z,0.75
2022-08-30T19:10:27.130Z,1.63
2022-08-30T19:12:54.596Z,1.03
2022-08-30T19:15:22.247Z,1.30
2022-08-30T19:17:49.403Z,0.70
2022-08-30T19:20:20.727Z,0.82
2022-08-30T19:23:09.671Z,1.23
2022-08-30T19:25:35.184Z,0.90
2022-08-30T19:28:02.089Z,0.70
2022-08-30T19:30:30.232Z,0.95
2022-08-30T19:32:57.331Z,1.05
2022-08-30T19:36:04.551Z,1.10
2022-08-30T19:38:31.893Z,0.97
2022-08-30T19:40:59.632Z,1.15
2022-08-30T19:43:27.004Z,1.02
2022-08-30T19:45:58.902Z,0.70
2022-08-30T19:48:32.772Z,0.95
2022-08-30T19:51:01.375Z,1.00
2022-08-30T19:53:27.989Z,0.90
2022-08-30T19:55:55.419Z,1.10
2022-08-30T19:58:21.985Z,1.10
2022-08-30T20:00:55.900Z,0.80
2022-08-30T20:03:37.595Z,1.10
2022-08-30T20:06:07.015Z,0.80
2022-08-30T20:08:33.725Z,0.82
2022-08-30T20:11:00.568Z,0.80
2022-08-30T20:13:28.324Z,0.95
2022-08-30T20:15:56.538Z,1.07
2022-08-30T20:18:26.057Z,0.90
2022-08-30T20:20:53.498Z,1.00
2022-08-30T20:23:23.117Z,1.10
2022-08-30T20:25:54.695Z,1.27
2022-08-30T20:28:21.849Z,0.90
2022-08-30T20:30:49.219Z,0.88
2022-08-30T20:33:16.204Z,1.05
2022-08-30T20:35:48.831Z,1.60
2022-08-30T20:38:22.455Z,1.20
2022-08-30T20:40:52.376Z,0.80
2022-08-30T20:43:21.436Z,1.23
2022-08-30T20:45:48.954Z,1.40
2022-08-30T20:48:17.479Z,1.30
2022-08-30T20:50:44.631Z,1.58
2022-08-30T20:53:11.792Z,1.67
2022-08-30T20:55:45.144Z,1.42
2022-08-30T20:58:12.216Z,1.42
2022-08-30T21:00:39.283Z,1.42
2022-08-30T21:03:26.516Z,1.38
2022-08-30T21:05:54.449Z,0.87
2022-08-30T21:08:20.984Z,1.60
2022-08-30T21:10:48.131Z,1.67
2022-08-30T21:13:15.484Z,1.33
2022-08-30T21:15:45.859Z,1.40
2022-08-30T21:18:14.215Z,1.20
2022-08-30T21:20:41.236Z,1.67
2022-08-30T21:23:08.233Z,1.10
2022-08-30T21:25:39.389Z,1.25
2022-08-30T21:28:06.950Z,1.57
2022-08-30T21:30:34.808Z,1.20
2022-08-30T21:33:03.904Z,1.17
2022-08-30T21:35:48.823Z,1.30
2022-08-30T21:38:15.724Z,1.13
2022-08-30T21:40:43.283Z,1.50
2022-08-30T21:43:10.963Z,1.30
2022-08-30T21:45:41.285Z,1.30
2022-08-30T21:48:08.723Z,1.42
2022-08-30T21:50:37.706Z,1.35
2022-08-30T21:53:05.846Z,1.42
2022-08-30T21:55:33.017Z,1.35
2022-08-30T21:58:00.019Z,1.15
2022-08-30T22:00:26.782Z,1.42
2022-08-30T22:02:53.640Z,1.40
2022-08-30T22:05:20.632Z,0.90
2022-08-30T22:07:47.291Z,1.13
2022-08-30T22:10:13.908Z,1.00
2022-08-30T22:12:41.454Z,1.08
2022-08-30T22:15:09.212Z,1.25
2022-08-30T22:17:36.037Z,1.08
2022-08-30T22:20:03.975Z,1.10
2022-08-30T22:22:30.608Z,1.00
2022-08-30T22:24:57.163Z,1.20
2022-08-30T22:27:23.757Z,1.20
2022-08-30T22:29:50.405Z,1.20
2022-08-30T22:32:17.037Z,1.20
2022-08-30T22:34:47.256Z,0.80
2022-08-30T22:37:13.973Z,1.00
2022-08-30T22:39:40.631Z,1.15
2022-08-30T22:42:09.286Z,0.90
2022-08-30T22:44:36.357Z,0.98
2022-08-30T22:47:02.940Z,1.00
2022-08-30T22:49:29.567Z,1.05
2022-08-30T22:51:56.137Z,1.13
2022-08-30T22:54:22.846Z,0.85
2022-08-30T22:56:50.120Z,0.70
2022-08-30T22:59:16.759Z,0.82
2022-08-30T23:01:43.749Z,0.70
2022-08-30T23:04:11.663Z,1.00
2022-08-30T23:06:38.955Z,0.93
2022-08-30T23:09:06.847Z,1.00
2022-08-30T23:11:34.041Z,0.95
2022-08-30T23:14:02.056Z,1.42
2022-08-30T23:16:28.910Z,0.85
2022-08-30T23:18:55.786Z,0.95
2022-08-30T23:21:25.373Z,0.85
2022-08-30T23:24:11.893Z,0.70
2022-08-30T23:26:58.172Z,1.10
2022-08-30T23:29:43.990Z,0.80
2022-08-30T23:32:28.948Z,0.95
2022-08-30T23:35:14.148Z,0.90
2022-08-30T23:37:59.981Z,1.20
2022-08-30T23:40:45.109Z,0.90
2022-08-30T23:43:30.367Z,0.95
2022-08-30T23:46:19.461Z,1.43
2022-08-30T23:49:06.332Z,0.80
2022-08-30T23:51:52.019Z,1.20
2022-08-30T23:54:37.101Z,0.88
2022-08-30T23:57:23.745Z,1.00
